YM Cultivation — BLHN — position and weather

sailwx.info

Track history (hours):
 
Tides and Currents Weather Stations Pressure Air Temp Water Temp Dewpoint Dewpoint Depression Visibility Wind Speed Wind Dir Waves Ship Positions

YM Cultivation

Last reported at 2017-Nov-18 08:40 UTC. Time now 2017-Nov-23 13:09 UTC.
Position N 40°24' W 073°30'.

Length 224 m; draft 7.8 m.

Type: Cargo ship. MMSI: 416370000.

Date/timePositionNaut miles runAvg speedWind from/ knotsBaromVisibWave heightAir tempDewpointWater temp
2017-Nov-18 08:40N 40°24' W 073°30'1 8.6
2017-Nov-18 08:30N 40°24' W 073°32'4 7.5
2017-Nov-18 08:00N 40°25' W 073°37'4 7.7
2017-Nov-18 07:29N 40°26' W 073°42'4 7.7
2017-Nov-18 07:00N 40°26' W 073°47'4 8.2
2017-Nov-18 06:30N 40°28' W 073°52'4 8.2
2017-Nov-18 06:00N 40°30' W 073°56'816.3
2017-Nov-18 05:30N 40°36' W 074°03'4 8.5
2017-Nov-18 05:00N 40°39' W 074°07'2 4.4
2017-Nov-18 04:30N 40°39' W 074°10'1 1.7
2017-Nov-18 03:59N 40°39' W 074°11'0 0.0
2017-Nov-18 03:29N 40°39' W 074°11'0 0.0
2017-Nov-18 02:59N 40°39' W 074°11'0 0.0
2017-Nov-18 02:26N 40°39' W 074°11'0 0.0
2017-Nov-18 01:59N 40°39' W 074°11'0 0.0
2017-Nov-18 01:23N 40°39' W 074°11'0 0.0
2017-Nov-18 00:59N 40°39' W 074°11'0 0.0
2017-Nov-18 00:26N 40°39' W 074°11'0 0.0
2017-Nov-17 23:59N 40°39' W 074°11'0 0.0
2017-Nov-17 23:29N 40°39' W 074°11'0 0.0
2017-Nov-17 22:59N 40°39' W 074°11'0 0.0
2017-Nov-17 22:29N 40°39' W 074°11'0 0.0
2017-Nov-17 21:59N 40°39' W 074°11'0 0.0
2017-Nov-17 21:26N 40°39' W 074°11'0 0.0
2017-Nov-17 20:56N 40°39' W 074°11'0 0.0
2017-Nov-17 20:29N 40°39' W 074°11'0 0.0
2017-Nov-17 19:59N 40°39' W 074°11'0 0.0
2017-Nov-17 19:26N 40°39' W 074°11'0 0.0
2017-Nov-17 18:59N 40°39' W 074°11'0 0.0
2017-Nov-17 18:26N 40°39' W 074°11'0 0.0
2017-Nov-17 17:59N 40°39' W 074°11'0 0.0
2017-Nov-17 17:29N 40°39' W 074°11'0 0.0
2017-Nov-17 16:59N 40°39' W 074°11'0 0.0
2017-Nov-17 16:29N 40°39' W 074°11'0 0.0
2017-Nov-17 15:56N 40°39' W 074°11'0 0.0
2017-Nov-17 15:29N 40°39' W 074°11'0 0.0
2017-Nov-17 14:56N 40°39' W 074°11'0 0.0
2017-Nov-17 14:29N 40°39' W 074°11'0 0.0
2017-Nov-17 13:59N 40°39' W 074°11'0 0.0
2017-Nov-17 13:29N 40°39' W 074°11'0 0.0
2017-Nov-17 12:59N 40°39' W 074°11'0 0.0
2017-Nov-17 12:29N 40°39' W 074°11'0 0.0
2017-Nov-17 11:59N 40°39' W 074°11'0 0.0
2017-Nov-17 11:29N 40°39' W 074°11'1 1.7
2017-Nov-17 11:00N 40°39' W 074°10'4 7.2
2017-Nov-17 10:30N 40°39' W 074°05'3 6.7
2017-Nov-17 10:01N 40°36' W 074°03'714.8
2017-Nov-17 09:30N 40°30' W 073°57'5 9.9
2017-Nov-17 09:00N 40°28' W 073°51'4 8.6
2017-Nov-17 08:30N 40°26' W 073°46'4 7.0
2017-Nov-17 07:59N 40°23' W 073°47'4 8.9
2017-Nov-17 07:30N 40°18' W 073°46'5 9.4
2017-Nov-17 06:56N 40°13' W 073°45'32 6.6
2017-Nov-17 02:04N 39°41' W 073°42'1 6.1
2017-Nov-17 01:57N 39°40' W 073°43'3 6.1
2017-Nov-17 01:25N 39°37' W 073°45'3 5.8
2017-Nov-17 00:58N 39°35' W 073°46'3 5.3
2017-Nov-17 00:28N 39°33' W 073°48'3 5.2
2017-Nov-16 23:57N 39°31' W 073°50'3 5.2
2017-Nov-16 23:27N 39°28' W 073°52'3 4.9
2017-Nov-16 22:51N 39°26' W 073°54'3 5.5
2017-Nov-16 22:22N 39°24' W 073°55'43 5.3
2017-Nov-16 14:13N 38°46' W 074°23'2 6.1
2017-Nov-16 13:51N 38°45' W 074°26'411.0
2017-Nov-16 13:28N 38°42' W 074°28'611.1
2017-Nov-16 12:56N 38°36' W 074°32'511.2
2017-Nov-16 12:29N 38°32' W 074°35'611.4
2017-Nov-16 11:59N 38°28' W 074°40'4 7.8
2017-Nov-16 11:30N 38°28' W 074°45'1510.2
2017-Nov-16 10:01N 38°40' W 074°56'1 9.5
2017-Nov-16 09:54N 38°41' W 074°57'5 9.3
2017-Nov-16 09:19N 38°45' W 075°01'3 9.6
2017-Nov-16 09:00N 38°48' W 075°03'4 8.5
2017-Nov-16 08:30N 38°52' W 075°05'815.9
2017-Nov-16 08:00N 38°59' W 075°08'816.2
2017-Nov-16 07:30N 39°07' W 075°13'816.9
2017-Nov-16 07:00N 39°14' W 075°18'917.8
2017-Nov-16 06:30N 39°21' W 075°26'917.9
2017-Nov-16 06:01N 39°27' W 075°33'815.1
2017-Nov-16 05:31N 39°35' W 075°33'713.3
2017-Nov-16 05:01N 39°41' W 075°31'5 9.8
2017-Nov-16 04:31N 39°46' W 075°29'5 9.2
2017-Nov-16 04:01N 39°49' W 075°24'4 7.4
2017-Nov-16 03:30N 39°51' W 075°20'4 7.1
2017-Nov-16 03:01N 39°51' W 075°16'4 7.1
2017-Nov-16 02:31N 39°53' W 075°12'3 5.9
2017-Nov-16 02:00N 39°54' W 075°08'0 0.4
2017-Nov-16 01:23N 39°54' W 075°08'0 0.0
2017-Nov-16 00:59N 39°54' W 075°08'0 0.0
2017-Nov-16 00:29N 39°54' W 075°08'0 0.0
2017-Nov-15 23:59N 39°54' W 075°08'0 0.0
2017-Nov-15 23:29N 39°54' W 075°08'0 0.0
2017-Nov-15 22:59N 39°54' W 075°08'0 0.0
2017-Nov-15 22:29N 39°54' W 075°08'0 0.0
2017-Nov-15 21:59N 39°54' W 075°08'0 0.0
2017-Nov-15 21:29N 39°54' W 075°08'0 0.0
2017-Nov-15 20:59N 39°54' W 075°08'0 0.0
2017-Nov-15 20:29N 39°54' W 075°08'0 0.0
2017-Nov-15 19:59N 39°54' W 075°08'0 0.0
2017-Nov-15 19:29N 39°54' W 075°08'0 0.0
2017-Nov-15 18:59N 39°54' W 075°08'0 0.0
2017-Nov-15 18:30N 39°54' W 075°08'1 2.3
2017-Nov-15 18:01N 39°53' W 075°09'3 5.9
2017-Nov-15 17:30N 39°52' W 075°12'3 6.0
2017-Nov-15 17:00N 39°51' W 075°16'4 7.6
2017-Nov-15 16:31N 39°51' W 075°21'5 9.1
2017-Nov-15 16:01N 39°48' W 075°25'5 9.0
2017-Nov-15 15:31N 39°45' W 075°30'5 9.6
2017-Nov-15 15:01N 39°40' W 075°32'5 9.8
2017-Nov-15 14:30N 39°36' W 075°34'714.1
2017-Nov-15 14:01N 39°29' W 075°34'714.3
2017-Nov-15 13:30N 39°23' W 075°28'815.6
2017-Nov-15 13:00N 39°17' W 075°22'815.5
2017-Nov-15 12:30N 39°11' W 075°16'714.4
2017-Nov-15 12:00N 39°05' W 075°11'714.9
2017-Nov-15 11:31N 38°58' W 075°07'914.3
2017-Nov-15 10:52N 38°49' W 075°03'3 8.0
2017-Nov-15 10:30N 38°47' W 075°01'4 8.9
2017-Nov-15 10:00N 38°44' W 074°57'11911.8
2017-Nov-14 23:58N 36°57' W 076°01'613.2
2017-Nov-14 23:30N 36°59' W 076°08'912.8
2017-Nov-14 22:46N 36°58' W 076°20'2 8.5
2017-Nov-14 22:30N 36°55' W 076°20'1 1.6
2017-Nov-14 22:00N 36°55' W 076°20'0 0.0
2017-Nov-14 21:30N 36°55' W 076°20'0 0.0
2017-Nov-14 21:00N 36°55' W 076°20'0 0.0
2017-Nov-14 20:27N 36°55' W 076°20'0 0.0
2017-Nov-14 20:00N 36°55' W 076°20'0 0.0
2017-Nov-14 19:30N 36°55' W 076°20'0 0.0
2017-Nov-14 19:00N 36°55' W 076°20'0 0.0
2017-Nov-14 18:30N 36°55' W 076°20'0 0.0
2017-Nov-14 18:00N 36°55' W 076°20'0 0.0
2017-Nov-14 17:30N 36°55' W 076°20'0 0.0
2017-Nov-14 17:00N 36°55' W 076°20'0 0.0
2017-Nov-14 16:30N 36°55' W 076°20'0 0.0
2017-Nov-14 16:00N 36°55' W 076°20'0 0.0
2017-Nov-14 15:30N 36°55' W 076°20'0 0.0
2017-Nov-14 14:54N 36°55' W 076°20'0 0.0
2017-Nov-14 14:21N 36°55' W 076°20'0 0.0
2017-Nov-14 13:45N 36°55' W 076°20'0 0.0
2017-Nov-14 13:30N 36°55' W 076°20'0 0.0
2017-Nov-14 13:00N 36°55' W 076°20'0 0.0
2017-Nov-14 12:30N 36°55' W 076°20'0 0.0
2017-Nov-14 11:57N 36°55' W 076°20'0 0.0
2017-Nov-14 11:27N 36°55' W 076°20'0 0.0
2017-Nov-14 11:00N 36°55' W 076°20'0 0.0
2017-Nov-14 10:30N 36°55' W 076°20'0 0.0
2017-Nov-14 10:00N 36°55' W 076°20'0 0.0
2017-Nov-14 09:30N 36°55' W 076°20'0 0.1
2017-Nov-14 09:00N 36°55' W 076°20'0 0.0
2017-Nov-14 08:27N 36°55' W 076°20'0 0.0
2017-Nov-14 08:00N 36°55' W 076°20'0 0.0
2017-Nov-14 07:30N 36°55' W 076°20'0 0.0
2017-Nov-14 07:00N 36°55' W 076°20'0 0.0
2017-Nov-14 06:30N 36°55' W 076°20'0 0.0
2017-Nov-14 06:00N 36°55' W 076°20'0 0.0
2017-Nov-14 05:28N 36°55' W 076°20'0 0.0
2017-Nov-14 04:58N 36°55' W 076°20'0 0.0
2017-Nov-14 04:25N 36°55' W 076°20'0 0.0
2017-Nov-14 03:58N 36°55' W 076°20'0 0.0
2017-Nov-14 03:28N 36°55' W 076°20'0 0.0
2017-Nov-14 02:58N 36°55' W 076°20'0 0.0
2017-Nov-14 02:28N 36°55' W 076°20'0 0.0
2017-Nov-14 01:58N 36°55' W 076°20'0 0.0
2017-Nov-14 01:28N 36°55' W 076°20'0 0.0
2017-Nov-14 00:58N 36°55' W 076°20'0 0.0
2017-Nov-14 00:28N 36°55' W 076°20'0 0.0
2017-Nov-13 23:55N 36°55' W 076°20'0 0.0
2017-Nov-13 23:28N 36°55' W 076°20'0 0.0
2017-Nov-13 22:58N 36°55' W 076°20'0 0.0
2017-Nov-13 22:16N 36°55' W 076°20'0 0.0
2017-Nov-13 21:52N 36°55' W 076°20'  
Track history (hours):
 
Tides and Currents Weather Stations Pressure Air Temp Water Temp Dewpoint Dewpoint Depression Visibility Wind Speed Wind Dir Waves Ship Positions

YM Cultivation

Last reported at 2017-Nov-18 08:40 UTC. Time now 2017-Nov-23 13:09 UTC.
Position N 40°24' W 073°30'.

Length 224 m; draft 7.8 m.

Type: Cargo ship. MMSI: 416370000.

Date/timePositionNaut miles runAvg speedWind from/ knotsBaromVisibWave heightAir tempDewpointWater temp
2017-Nov-18 08:40N 40°24' W 073°30'1 8.6
2017-Nov-18 08:30N 40°24' W 073°32'4 7.5
2017-Nov-18 08:00N 40°25' W 073°37'4 7.7
2017-Nov-18 07:29N 40°26' W 073°42'4 7.7
2017-Nov-18 07:00N 40°26' W 073°47'4 8.2
2017-Nov-18 06:30N 40°28' W 073°52'4 8.2
2017-Nov-18 06:00N 40°30' W 073°56'816.3
2017-Nov-18 05:30N 40°36' W 074°03'4 8.5
2017-Nov-18 05:00N 40°39' W 074°07'2 4.4
2017-Nov-18 04:30N 40°39' W 074°10'1 1.7
2017-Nov-18 03:59N 40°39' W 074°11'0 0.0
2017-Nov-18 03:29N 40°39' W 074°11'0 0.0
2017-Nov-18 02:59N 40°39' W 074°11'0 0.0
2017-Nov-18 02:26N 40°39' W 074°11'0 0.0
2017-Nov-18 01:59N 40°39' W 074°11'0 0.0
2017-Nov-18 01:23N 40°39' W 074°11'0 0.0
2017-Nov-18 00:59N 40°39' W 074°11'0 0.0
2017-Nov-18 00:26N 40°39' W 074°11'0 0.0
2017-Nov-17 23:59N 40°39' W 074°11'0 0.0
2017-Nov-17 23:29N 40°39' W 074°11'0 0.0
2017-Nov-17 22:59N 40°39' W 074°11'0 0.0
2017-Nov-17 22:29N 40°39' W 074°11'0 0.0
2017-Nov-17 21:59N 40°39' W 074°11'0 0.0
2017-Nov-17 21:26N 40°39' W 074°11'0 0.0
2017-Nov-17 20:56N 40°39' W 074°11'0 0.0
2017-Nov-17 20:29N 40°39' W 074°11'0 0.0
2017-Nov-17 19:59N 40°39' W 074°11'0 0.0
2017-Nov-17 19:26N 40°39' W 074°11'0 0.0
2017-Nov-17 18:59N 40°39' W 074°11'0 0.0
2017-Nov-17 18:26N 40°39' W 074°11'0 0.0
2017-Nov-17 17:59N 40°39' W 074°11'0 0.0
2017-Nov-17 17:29N 40°39' W 074°11'0 0.0
2017-Nov-17 16:59N 40°39' W 074°11'0 0.0
2017-Nov-17 16:29N 40°39' W 074°11'0 0.0
2017-Nov-17 15:56N 40°39' W 074°11'0 0.0
2017-Nov-17 15:29N 40°39' W 074°11'0 0.0
2017-Nov-17 14:56N 40°39' W 074°11'0 0.0
2017-Nov-17 14:29N 40°39' W 074°11'0 0.0
2017-Nov-17 13:59N 40°39' W 074°11'0 0.0
2017-Nov-17 13:29N 40°39' W 074°11'0 0.0
2017-Nov-17 12:59N 40°39' W 074°11'0 0.0
2017-Nov-17 12:29N 40°39' W 074°11'0 0.0
2017-Nov-17 11:59N 40°39' W 074°11'0 0.0
2017-Nov-17 11:29N 40°39' W 074°11'1 1.7
2017-Nov-17 11:00N 40°39' W 074°10'4 7.2
2017-Nov-17 10:30N 40°39' W 074°05'3 6.7
2017-Nov-17 10:01N 40°36' W 074°03'714.8
2017-Nov-17 09:30N 40°30' W 073°57'5 9.9
2017-Nov-17 09:00N 40°28' W 073°51'4 8.6
2017-Nov-17 08:30N 40°26' W 073°46'4 7.0
2017-Nov-17 07:59N 40°23' W 073°47'4 8.9
2017-Nov-17 07:30N 40°18' W 073°46'5 9.4
2017-Nov-17 06:56N 40°13' W 073°45'32 6.6
2017-Nov-17 02:04N 39°41' W 073°42'1 6.1
2017-Nov-17 01:57N 39°40' W 073°43'3 6.1
2017-Nov-17 01:25N 39°37' W 073°45'3 5.8
2017-Nov-17 00:58N 39°35' W 073°46'3 5.3
2017-Nov-17 00:28N 39°33' W 073°48'3 5.2
2017-Nov-16 23:57N 39°31' W 073°50'3 5.2
2017-Nov-16 23:27N 39°28' W 073°52'3 4.9
2017-Nov-16 22:51N 39°26' W 073°54'3 5.5
2017-Nov-16 22:22N 39°24' W 073°55'43 5.3
2017-Nov-16 14:13N 38°46' W 074°23'2 6.1
2017-Nov-16 13:51N 38°45' W 074°26'411.0
2017-Nov-16 13:28N 38°42' W 074°28'611.1
2017-Nov-16 12:56N 38°36' W 074°32'511.2
2017-Nov-16 12:29N 38°32' W 074°35'611.4
2017-Nov-16 11:59N 38°28' W 074°40'4 7.8
2017-Nov-16 11:30N 38°28' W 074°45'1510.2
2017-Nov-16 10:01N 38°40' W 074°56'1 9.5
2017-Nov-16 09:54N 38°41' W 074°57'5 9.3
2017-Nov-16 09:19N 38°45' W 075°01'3 9.6
2017-Nov-16 09:00N 38°48' W 075°03'4 8.5
2017-Nov-16 08:30N 38°52' W 075°05'815.9
2017-Nov-16 08:00N 38°59' W 075°08'816.2
2017-Nov-16 07:30N 39°07' W 075°13'816.9
2017-Nov-16 07:00N 39°14' W 075°18'917.8
2017-Nov-16 06:30N 39°21' W 075°26'917.9
2017-Nov-16 06:01N 39°27' W 075°33'815.1
2017-Nov-16 05:31N 39°35' W 075°33'713.3
2017-Nov-16 05:01N 39°41' W 075°31'5 9.8
2017-Nov-16 04:31N 39°46' W 075°29'5 9.2
2017-Nov-16 04:01N 39°49' W 075°24'4 7.4
2017-Nov-16 03:30N 39°51' W 075°20'4 7.1
2017-Nov-16 03:01N 39°51' W 075°16'4 7.1
2017-Nov-16 02:31N 39°53' W 075°12'3 5.9
2017-Nov-16 02:00N 39°54' W 075°08'0 0.4
2017-Nov-16 01:23N 39°54' W 075°08'0 0.0
2017-Nov-16 00:59N 39°54' W 075°08'0 0.0
2017-Nov-16 00:29N 39°54' W 075°08'0 0.0
2017-Nov-15 23:59N 39°54' W 075°08'0 0.0
2017-Nov-15 23:29N 39°54' W 075°08'0 0.0
2017-Nov-15 22:59N 39°54' W 075°08'0 0.0
2017-Nov-15 22:29N 39°54' W 075°08'0 0.0
2017-Nov-15 21:59N 39°54' W 075°08'0 0.0
2017-Nov-15 21:29N 39°54' W 075°08'0 0.0
2017-Nov-15 20:59N 39°54' W 075°08'0 0.0
2017-Nov-15 20:29N 39°54' W 075°08'0 0.0
2017-Nov-15 19:59N 39°54' W 075°08'0 0.0
2017-Nov-15 19:29N 39°54' W 075°08'0 0.0
2017-Nov-15 18:59N 39°54' W 075°08'0 0.0
2017-Nov-15 18:30N 39°54' W 075°08'1 2.3
2017-Nov-15 18:01N 39°53' W 075°09'3 5.9
2017-Nov-15 17:30N 39°52' W 075°12'3 6.0
2017-Nov-15 17:00N 39°51' W 075°16'4 7.6
2017-Nov-15 16:31N 39°51' W 075°21'5 9.1
2017-Nov-15 16:01N 39°48' W 075°25'5 9.0
2017-Nov-15 15:31N 39°45' W 075°30'5 9.6
2017-Nov-15 15:01N 39°40' W 075°32'5 9.8
2017-Nov-15 14:30N 39°36' W 075°34'714.1
2017-Nov-15 14:01N 39°29' W 075°34'714.3
2017-Nov-15 13:30N 39°23' W 075°28'815.6
2017-Nov-15 13:00N 39°17' W 075°22'815.5
2017-Nov-15 12:30N 39°11' W 075°16'714.4
2017-Nov-15 12:00N 39°05' W 075°11'714.9
2017-Nov-15 11:31N 38°58' W 075°07'914.3
2017-Nov-15 10:52N 38°49' W 075°03'3 8.0
2017-Nov-15 10:30N 38°47' W 075°01'4 8.9
2017-Nov-15 10:00N 38°44' W 074°57'11911.8
2017-Nov-14 23:58N 36°57' W 076°01'613.2
2017-Nov-14 23:30N 36°59' W 076°08'912.8
2017-Nov-14 22:46N 36°58' W 076°20'2 8.5
2017-Nov-14 22:30N 36°55' W 076°20'1 1.6
2017-Nov-14 22:00N 36°55' W 076°20'0 0.0
2017-Nov-14 21:30N 36°55' W 076°20'0 0.0
2017-Nov-14 21:00N 36°55' W 076°20'0 0.0
2017-Nov-14 20:27N 36°55' W 076°20'0 0.0
2017-Nov-14 20:00N 36°55' W 076°20'0 0.0
2017-Nov-14 19:30N 36°55' W 076°20'0 0.0
2017-Nov-14 19:00N 36°55' W 076°20'0 0.0
2017-Nov-14 18:30N 36°55' W 076°20'0 0.0
2017-Nov-14 18:00N 36°55' W 076°20'0 0.0
2017-Nov-14 17:30N 36°55' W 076°20'0 0.0
2017-Nov-14 17:00N 36°55' W 076°20'0 0.0
2017-Nov-14 16:30N 36°55' W 076°20'0 0.0
2017-Nov-14 16:00N 36°55' W 076°20'0 0.0
2017-Nov-14 15:30N 36°55' W 076°20'0 0.0
2017-Nov-14 14:54N 36°55' W 076°20'0 0.0
2017-Nov-14 14:21N 36°55' W 076°20'0 0.0
2017-Nov-14 13:45N 36°55' W 076°20'0 0.0
2017-Nov-14 13:30N 36°55' W 076°20'0 0.0
2017-Nov-14 13:00N 36°55' W 076°20'0 0.0
2017-Nov-14 12:30N 36°55' W 076°20'0 0.0
2017-Nov-14 11:57N 36°55' W 076°20'0 0.0
2017-Nov-14 11:27N 36°55' W 076°20'0 0.0
2017-Nov-14 11:00N 36°55' W 076°20'0 0.0
2017-Nov-14 10:30N 36°55' W 076°20'0 0.0
2017-Nov-14 10:00N 36°55' W 076°20'0 0.0
2017-Nov-14 09:30N 36°55' W 076°20'0 0.1
2017-Nov-14 09:00N 36°55' W 076°20'0 0.0
2017-Nov-14 08:27N 36°55' W 076°20'0 0.0
2017-Nov-14 08:00N 36°55' W 076°20'0 0.0
2017-Nov-14 07:30N 36°55' W 076°20'0 0.0
2017-Nov-14 07:00N 36°55' W 076°20'0 0.0
2017-Nov-14 06:30N 36°55' W 076°20'0 0.0
2017-Nov-14 06:00N 36°55' W 076°20'0 0.0
2017-Nov-14 05:28N 36°55' W 076°20'0 0.0
2017-Nov-14 04:58N 36°55' W 076°20'0 0.0
2017-Nov-14 04:25N 36°55' W 076°20'0 0.0
2017-Nov-14 03:58N 36°55' W 076°20'0 0.0
2017-Nov-14 03:28N 36°55' W 076°20'0 0.0
2017-Nov-14 02:58N 36°55' W 076°20'0 0.0
2017-Nov-14 02:28N 36°55' W 076°20'0 0.0
2017-Nov-14 01:58N 36°55' W 076°20'0 0.0
2017-Nov-14 01:28N 36°55' W 076°20'0 0.0
2017-Nov-14 00:58N 36°55' W 076°20'0 0.0
2017-Nov-14 00:28N 36°55' W 076°20'0 0.0
2017-Nov-13 23:55N 36°55' W 076°20'0 0.0
2017-Nov-13 23:28N 36°55' W 076°20'0 0.0
2017-Nov-13 22:58N 36°55' W 076°20'0 0.0
2017-Nov-13 22:16N 36°55' W 076°20'0 0.0
2017-Nov-13 21:52N 36°55' W 076°20'  

Dump ship's entire track history